createdAt,value
2023-05-25T00:01:14.025Z,4.60
2023-05-25T00:03:40.870Z,5.18
2023-05-25T00:06:08.051Z,4.85
2023-05-25T00:08:35.035Z,5.85
2023-05-25T00:11:01.837Z,4.95
2023-05-25T00:13:31.151Z,4.68
2023-05-25T00:15:58.598Z,4.32
2023-05-25T00:18:25.423Z,4.82
2023-05-25T00:20:55.306Z,5.30
2023-05-25T00:23:25.065Z,4.93
2023-05-25T00:25:52.053Z,4.53
2023-05-25T00:28:19.051Z,4.45
2023-05-25T00:30:45.988Z,4.55
2023-05-25T00:33:13.182Z,5.13
2023-05-25T00:35:39.808Z,4.65
2023-05-25T00:38:09.216Z,4.85
2023-05-25T00:40:39.377Z,5.38
2023-05-25T00:43:08.550Z,4.60
2023-05-25T00:45:35.806Z,5.18
2023-05-25T00:48:04.992Z,4.63
2023-05-25T00:50:42.527Z,4.85
2023-05-25T00:53:10.999Z,5.07
2023-05-25T00:55:46.185Z,5.00
2023-05-25T00:58:14.008Z,5.45
2023-05-25T01:00:43.118Z,5.22
2023-05-25T01:03:17.870Z,5.32
2023-05-25T01:05:48.837Z,5.15
2023-05-25T01:08:18.379Z,5.65
2023-05-25T01:10:52.871Z,4.80
2023-05-25T01:13:21.443Z,5.18
2023-05-25T01:15:48.841Z,5.10
2023-05-25T01:18:17.018Z,5.05
2023-05-25T01:21:18.225Z,5.25
2023-05-25T01:23:53.369Z,4.40
2023-05-25T01:26:23.837Z,4.90
2023-05-25T01:28:53.262Z,5.40
2023-05-25T01:31:23.941Z,5.15
2023-05-25T01:33:52.560Z,4.70
2023-05-25T01:36:21.986Z,4.97
2023-05-25T01:38:49.616Z,4.85
2023-05-25T01:41:16.342Z,4.22
2023-05-25T01:43:43.225Z,4.32
2023-05-25T01:46:15.217Z,4.43
2023-05-25T01:49:21.705Z,5.18
2023-05-25T01:52:01.246Z,4.93
2023-05-25T01:54:35.916Z,4.63
2023-05-25T01:57:10.912Z,4.65
2023-05-25T01:59:43.967Z,5.03
2023-05-25T02:02:13.796Z,4.97
2023-05-25T02:04:41.576Z,5.13
2023-05-25T02:07:08.490Z,4.90
2023-05-25T02:09:35.635Z,4.95
2023-05-25T02:12:04.987Z,4.82
2023-05-25T02:14:31.607Z,5.18
2023-05-25T02:17:01.963Z,4.78
2023-05-25T02:19:29.494Z,4.78
2023-05-25T02:21:56.331Z,5.00
2023-05-25T02:24:25.102Z,4.85
2023-05-25T02:26:51.937Z,4.95
2023-05-25T02:29:18.975Z,5.35
2023-05-25T02:31:46.094Z,4.68
2023-05-25T02:34:14.812Z,5.35
2023-05-25T02:36:43.540Z,5.20
2023-05-25T02:39:11.831Z,4.97
2023-05-25T02:41:39.440Z,4.55
2023-05-25T02:44:06.631Z,5.35
2023-05-25T02:46:34.127Z,4.57
2023-05-25T02:49:01.108Z,5.18
2023-05-25T02:51:29.106Z,5.53
2023-05-25T02:53:56.496Z,5.22
2023-05-25T02:56:23.306Z,5.10
2023-05-25T02:58:50.424Z,5.07
2023-05-25T03:01:20.044Z,4.88
2023-05-25T03:03:47.478Z,4.32
2023-05-25T03:06:17.078Z,4.90
2023-05-25T03:08:46.293Z,5.68
2023-05-25T03:11:15.561Z,5.03
2023-05-25T03:13:42.533Z,4.88
2023-05-25T03:16:09.882Z,5.40
2023-05-25T03:18:36.850Z,5.28
2023-05-25T03:21:04.092Z,6.10
2023-05-25T03:23:30.864Z,5.28
2023-05-25T03:25:58.159Z,5.25
2023-05-25T03:28:28.173Z,5.57
2023-05-25T03:30:54.907Z,4.72
2023-05-25T03:33:21.616Z,5.72
2023-05-25T03:35:50.752Z,4.85
2023-05-25T03:38:17.628Z,4.93
2023-05-25T03:40:44.419Z,5.47
2023-05-25T03:43:11.635Z,5.38
2023-05-25T03:45:41.053Z,5.55
2023-05-25T03:48:08.106Z,5.50
2023-05-25T03:50:35.011Z,5.38
2023-05-25T03:53:01.793Z,5.82
2023-05-25T03:55:29.182Z,5.95
2023-05-25T03:57:55.979Z,6.35
2023-05-25T04:00:22.870Z,5.97
2023-05-25T04:02:49.836Z,6.20
2023-05-25T04:05:16.561Z,6.07
2023-05-25T04:07:43.665Z,5.85
2023-05-25T04:10:11.292Z,5.90
2023-05-25T04:12:38.613Z,6.03
2023-05-25T04:15:09.152Z,5.28
2023-05-25T04:17:39.121Z,5.20
2023-05-25T04:20:09.091Z,5.47
2023-05-25T04:22:39.066Z,5.38
2023-05-25T04:25:08.278Z,5.63
2023-05-25T04:27:34.989Z,5.30
2023-05-25T04:30:01.885Z,5.97
2023-05-25T04:32:30.085Z,5.35
2023-05-25T04:34:57.318Z,5.43
2023-05-25T04:37:27.288Z,5.97
2023-05-25T04:39:54.354Z,5.53
2023-05-25T04:42:24.030Z,5.32
2023-05-25T04:44:55.952Z,5.85
2023-05-25T04:47:25.058Z,5.45
2023-05-25T04:49:52.047Z,5.32
2023-05-25T04:52:18.886Z,5.68
2023-05-25T04:54:46.951Z,5.25
2023-05-25T04:57:13.665Z,5.55
2023-05-25T04:59:41.131Z,5.78
2023-05-25T05:02:08.723Z,5.75
2023-05-25T05:04:37.423Z,5.00
2023-05-25T05:07:04.348Z,4.55
2023-05-25T05:09:30.993Z,4.72
2023-05-25T05:11:57.720Z,3.75
2023-05-25T05:14:24.532Z,3.97
2023-05-25T05:16:51.558Z,3.78
2023-05-25T05:19:18.413Z,4.40
2023-05-25T05:21:47.595Z,4.20
2023-05-25T05:24:17.281Z,4.05
2023-05-25T05:26:55.503Z,3.60
2023-05-25T05:29:24.200Z,3.78
2023-05-25T05:31:51.149Z,3.92
2023-05-25T05:34:17.938Z,3.20
2023-05-25T05:36:56.430Z,4.00
2023-05-25T05:39:24.507Z,3.40
2023-05-25T05:41:51.356Z,3.53
2023-05-25T05:44:18.715Z,4.07
2023-05-25T05:46:46.496Z,4.10
2023-05-25T05:49:13.517Z,4.10
2023-05-25T05:51:40.231Z,4.43
2023-05-25T05:54:07.206Z,3.63
2023-05-25T05:56:33.910Z,4.28
2023-05-25T05:59:00.833Z,4.15
2023-05-25T06:01:27.698Z,3.83
2023-05-25T06:03:56.115Z,4.40
2023-05-25T06:06:25.734Z,5.13
2023-05-25T06:08:53.669Z,3.90
2023-05-25T06:11:20.657Z,3.72
2023-05-25T06:13:47.673Z,4.10
2023-05-25T06:16:14.734Z,4.22
2023-05-25T06:51:06.252Z,4.05
2023-05-25T06:53:36.093Z,3.47
2023-05-25T06:56:02.835Z,3.45
2023-05-25T06:58:32.643Z,3.25
2023-05-25T07:01:01.678Z,3.35
2023-05-25T07:03:28.732Z,3.20
2023-05-25T07:05:57.643Z,3.22
2023-05-25T07:08:24.366Z,3.45
2023-05-25T07:10:51.680Z,3.60
2023-05-25T07:13:18.454Z,3.30
2023-05-25T07:15:45.406Z,3.22
2023-05-25T07:18:15.436Z,3.22
2023-05-25T07:20:42.731Z,3.80
2023-05-25T07:23:10.484Z,3.60
2023-05-25T07:25:41.716Z,4.03
2023-05-25T07:28:08.904Z,3.40
2023-05-25T07:30:36.196Z,4.03
2023-05-25T07:33:03.384Z,3.13
2023-05-25T07:35:30.278Z,3.78
2023-05-25T07:38:00.808Z,4.25
2023-05-25T07:40:28.142Z,4.00
2023-05-25T07:42:55.383Z,3.20
2023-05-25T07:45:22.599Z,3.90
2023-05-25T07:47:49.587Z,4.50
2023-05-25T07:50:19.058Z,4.07
2023-05-25T07:52:46.983Z,3.85
2023-05-25T07:55:14.049Z,3.20
2023-05-25T07:57:40.868Z,3.25
2023-05-25T08:00:12.129Z,5.03
2023-05-25T08:02:42.102Z,3.92
2023-05-25T08:05:10.200Z,3.63
2023-05-25T08:07:40.753Z,3.60
2023-05-25T08:10:10.353Z,3.67
2023-05-25T08:12:46.851Z,3.83
2023-05-25T08:15:17.663Z,3.97
2023-05-25T08:17:45.153Z,3.60
2023-05-25T08:20:20.280Z,3.42
2023-05-25T08:22:50.057Z,3.25
2023-05-25T08:25:16.973Z,3.55
2023-05-25T08:27:49.081Z,3.30
2023-05-25T08:30:15.837Z,3.75
2023-05-25T08:32:44.484Z,3.65
2023-05-25T08:35:11.223Z,3.33
2023-05-25T08:37:38.344Z,3.22
2023-05-25T08:40:08.011Z,3.20
2023-05-25T08:42:35.041Z,3.40
2023-05-25T08:45:04.603Z,3.05
2023-05-25T08:47:36.791Z,4.00
2023-05-25T08:50:03.991Z,3.88
2023-05-25T08:52:33.849Z,3.78
2023-05-25T08:55:06.432Z,4.20
2023-05-25T08:57:55.918Z,4.05
2023-05-25T09:00:34.372Z,4.88
2023-05-25T09:03:18.396Z,4.50
2023-05-25T09:05:46.476Z,4.63
2023-05-25T09:08:13.972Z,4.00
2023-05-25T09:10:41.501Z,4.18
2023-05-25T09:13:21.165Z,3.65
2023-05-25T09:15:49.700Z,2.88
2023-05-25T09:18:17.622Z,3.35
2023-05-25T09:20:46.926Z,3.13
2023-05-25T09:23:15.286Z,3.35
2023-05-25T09:25:42.687Z,2.83
2023-05-25T09:30:39.565Z,3.65
2023-05-25T09:33:13.602Z,2.80
2023-05-25T09:35:44.421Z,2.40
2023-05-25T09:38:15.777Z,2.30
2023-05-25T09:40:45.604Z,2.47
2023-05-25T09:43:22.013Z,2.30
2023-05-25T09:45:55.339Z,2.42
2023-05-25T09:48:22.351Z,2.63
2023-05-25T09:50:50.159Z,2.03
2023-05-25T09:53:19.292Z,2.13
2023-05-25T09:55:53.934Z,3.28
2023-05-25T09:58:23.734Z,2.70
2023-05-25T10:00:55.828Z,2.38
2023-05-25T10:03:22.825Z,2.53
2023-05-25T10:05:49.959Z,2.45
2023-05-25T10:08:20.236Z,2.38
2023-05-25T10:10:50.126Z,2.53
2023-05-25T10:13:22.154Z,3.08
2023-05-25T10:15:55.675Z,2.97
2023-05-25T10:18:28.277Z,2.90
2023-05-25T10:21:03.609Z,3.33
2023-05-25T10:23:38.248Z,3.13
2023-05-25T10:26:06.742Z,2.53
2023-05-25T10:28:37.384Z,3.53
2023-05-25T10:31:05.422Z,4.20
2023-05-25T10:33:34.161Z,4.00
2023-05-25T10:36:10.542Z,3.83
2023-05-25T10:38:40.637Z,3.17
2023-05-25T10:41:13.847Z,3.47
2023-05-25T10:43:41.564Z,3.22
2023-05-25T10:46:09.074Z,3.03
2023-05-25T10:48:40.666Z,3.15
2023-05-25T10:51:12.028Z,2.60
2023-05-25T10:53:39.124Z,4.43
2023-05-25T10:56:08.875Z,2.95
2023-05-25T10:58:36.543Z,3.60
2023-05-25T11:01:11.003Z,3.13
2023-05-25T11:03:45.968Z,3.45
2023-05-25T11:06:22.734Z,2.83
2023-05-25T11:08:59.841Z,3.42
2023-05-25T11:11:47.832Z,3.00
2023-05-25T11:14:30.098Z,3.05
2023-05-25T11:17:15.083Z,3.10
2023-05-25T11:19:56.569Z,3.30
2023-05-25T11:22:33.774Z,3.30
2023-05-25T11:25:02.006Z,3.53
2023-05-25T11:27:30.819Z,3.97
2023-05-25T11:29:59.390Z,3.65
2023-05-25T11:32:27.296Z,3.88
2023-05-25T11:34:58.833Z,3.33
2023-05-25T11:37:29.212Z,3.45
2023-05-25T11:39:56.096Z,3.92
2023-05-25T11:42:26.575Z,3.63
2023-05-25T11:44:53.822Z,3.33
2023-05-25T11:47:23.984Z,3.67
2023-05-25T11:49:50.926Z,3.58
2023-05-25T11:52:22.428Z,2.97
2023-05-25T11:54:49.359Z,3.40
2023-05-25T11:57:20.949Z,3.80
2023-05-25T12:00:01.391Z,3.28
2023-05-25T12:02:28.353Z,3.53
2023-05-25T12:04:56.330Z,2.92
2023-05-25T12:07:24.139Z,3.47
2023-05-25T12:09:50.916Z,3.17
2023-05-25T12:12:17.814Z,4.00
2023-05-25T12:14:51.479Z,3.75
2023-05-25T12:17:21.510Z,4.00
2023-05-25T12:19:49.163Z,3.10
2023-05-25T12:22:16.473Z,3.50
2023-05-25T12:24:43.530Z,3.22
2023-05-25T12:27:18.224Z,3.45
2023-05-25T12:29:48.636Z,3.15
2023-05-25T12:32:16.140Z,3.65
2023-05-25T12:34:43.696Z,3.03
2023-05-25T12:37:21.077Z,3.28
2023-05-25T12:39:51.076Z,2.72
2023-05-25T12:42:18.078Z,3.30
2023-05-25T12:44:46.717Z,3.20
2023-05-25T12:47:16.067Z,4.03
2023-05-25T12:49:44.850Z,3.22
2023-05-25T12:52:31.235Z,3.10
2023-05-25T12:54:58.038Z,3.08
2023-05-25T12:57:36.358Z,3.38
2023-05-25T13:00:03.897Z,3.13
2023-05-25T13:02:30.815Z,3.30
2023-05-25T13:04:57.548Z,3.10
2023-05-25T13:07:28.077Z,3.05
2023-05-25T13:09:55.076Z,3.15
2023-05-25T13:12:21.927Z,2.85
2023-05-25T13:14:49.235Z,2.97
2023-05-25T13:17:16.110Z,3.17
2023-05-25T13:19:42.809Z,3.08
2023-05-25T13:22:09.633Z,3.13
2023-05-25T13:24:36.370Z,3.83
2023-05-25T13:27:04.341Z,3.13
2023-05-25T13:29:33.318Z,2.67
2023-05-25T13:32:00.092Z,2.97
2023-05-25T13:34:27.115Z,2.72
2023-05-25T13:36:54.015Z,3.60
2023-05-25T13:39:23.029Z,3.10
2023-05-25T13:41:49.961Z,2.92
2023-05-25T13:44:21.425Z,3.17
2023-05-25T13:46:48.605Z,3.40
2023-05-25T13:49:16.596Z,2.90
2023-05-25T13:51:43.294Z,3.28
2023-05-25T13:54:10.100Z,2.88
2023-05-25T13:56:36.865Z,2.60
2023-05-25T13:59:04.032Z,2.88
2023-05-25T14:01:33.020Z,2.72
2023-05-25T14:04:00.654Z,3.42
2023-05-25T14:06:28.909Z,2.95
2023-05-25T14:08:56.134Z,3.20
2023-05-25T14:11:28.190Z,3.15
2023-05-25T14:13:55.898Z,3.42
2023-05-25T14:16:23.024Z,3.00
2023-05-25T14:18:50.250Z,3.20
2023-05-25T14:21:17.293Z,2.50
2023-05-25T14:23:44.892Z,3.30
2023-05-25T14:26:12.733Z,2.70
2023-05-25T14:28:41.957Z,3.67
2023-05-25T14:31:08.818Z,2.85
2023-05-25T14:33:38.730Z,2.30
2023-05-25T14:36:06.452Z,3.67
2023-05-25T14:38:33.355Z,3.78
2023-05-25T14:41:00.214Z,4.05
2023-05-25T14:43:27.051Z,3.10
2023-05-25T14:45:53.758Z,3.60
2023-05-25T14:48:25.403Z,3.63
2023-05-25T14:50:53.176Z,3.58
2023-05-25T14:53:19.877Z,3.70
2023-05-25T14:55:46.907Z,4.20
2023-05-25T14:58:15.076Z,3.42
2023-05-25T15:00:41.782Z,3.45
2023-05-25T15:03:08.796Z,3.45
2023-05-25T15:05:37.936Z,2.90
2023-05-25T15:08:05.661Z,3.45
2023-05-25T15:10:32.633Z,3.17
2023-05-25T15:12:59.561Z,3.58
2023-05-25T15:15:26.406Z,3.22
2023-05-25T15:17:53.243Z,2.92
2023-05-25T15:20:20.176Z,3.28
2023-05-25T15:22:46.938Z,3.33
2023-05-25T15:25:18.984Z,3.42
2023-05-25T15:27:51.494Z,2.97
2023-05-25T15:30:19.353Z,3.40
2023-05-25T15:32:46.222Z,3.03
2023-05-25T15:35:13.028Z,3.20
2023-05-25T15:37:39.865Z,3.00
2023-05-25T15:40:07.150Z,3.15
2023-05-25T15:42:33.770Z,2.70
2023-05-25T15:45:00.607Z,3.15
2023-05-25T15:47:27.411Z,2.88
2023-05-25T15:49:54.163Z,2.92
2023-05-25T15:52:23.287Z,3.50
2023-05-25T15:54:49.968Z,3.15
2023-05-25T15:57:23.479Z,3.35
2023-05-25T15:59:51.554Z,3.65
2023-05-25T16:02:18.423Z,3.88
2023-05-25T16:04:45.359Z,2.70
2023-05-25T16:07:12.568Z,3.60
2023-05-25T16:09:39.364Z,2.88
2023-05-25T16:12:07.061Z,3.03
2023-05-25T16:14:33.746Z,3.13
2023-05-25T16:17:00.543Z,2.83
2023-05-25T16:19:27.510Z,3.47
2023-05-25T16:21:54.540Z,3.00
2023-05-25T16:24:21.736Z,2.67
2023-05-25T16:26:51.341Z,3.10
2023-05-25T16:29:18.725Z,2.75
2023-05-25T16:31:46.320Z,2.97
2023-05-25T16:34:13.481Z,3.20
2023-05-25T16:36:40.819Z,3.30
2023-05-25T16:39:12.085Z,3.97
2023-05-25T16:41:39.132Z,3.70
2023-05-25T16:44:08.012Z,4.63
2023-05-25T16:46:35.147Z,3.50
2023-05-25T16:49:04.420Z,3.85
2023-05-25T16:51:33.944Z,4.07
2023-05-25T16:54:00.972Z,3.80
2023-05-25T16:56:30.411Z,3.20
2023-05-25T16:58:57.177Z,4.00
2023-05-25T17:01:24.072Z,3.92
2023-05-25T17:03:53.093Z,3.83
2023-05-25T17:06:20.129Z,3.80
2023-05-25T17:08:46.869Z,3.95
2023-05-25T17:11:18.172Z,3.90
2023-05-25T17:13:44.927Z,4.55
2023-05-25T17:16:11.855Z,3.70
2023-05-25T17:18:38.574Z,3.92
2023-05-25T17:21:05.696Z,4.70
2023-05-25T17:23:32.411Z,4.18
2023-05-25T17:25:59.241Z,3.63
2023-05-25T17:28:27.748Z,4.00
2023-05-25T17:30:56.592Z,3.50
2023-05-25T17:33:23.519Z,4.30
2023-05-25T17:35:50.442Z,4.15
2023-05-25T17:38:17.537Z,4.68
2023-05-25T17:40:44.437Z,4.03
2023-05-25T17:43:13.731Z,3.00
2023-05-25T17:45:40.999Z,4.20
2023-05-25T17:48:07.927Z,4.05
2023-05-25T17:50:34.740Z,5.65
2023-05-25T17:53:01.845Z,4.85
2023-05-25T17:55:28.771Z,4.72
2023-05-25T17:57:55.495Z,4.22
2023-05-25T18:00:24.686Z,3.67
2023-05-25T18:02:53.973Z,4.15
2023-05-25T18:05:20.824Z,5.00
2023-05-25T18:07:47.676Z,4.18
2023-05-25T18:10:14.950Z,5.57
2023-05-25T18:12:41.857Z,4.53
2023-05-25T18:15:09.285Z,4.13
2023-05-25T18:17:36.040Z,3.88
2023-05-25T18:20:03.157Z,3.55
2023-05-25T18:22:29.990Z,3.95
2023-05-25T18:24:56.609Z,4.30
2023-05-25T18:27:23.434Z,4.78
2023-05-25T18:29:52.305Z,3.63
2023-05-25T18:32:21.194Z,3.95
2023-05-25T18:34:48.466Z,4.65
2023-05-25T18:37:16.052Z,4.43
2023-05-25T18:39:43.099Z,4.78
2023-05-25T18:42:09.944Z,4.07
2023-05-25T18:44:36.603Z,4.43
2023-05-25T18:47:03.570Z,3.38
2023-05-25T18:49:34.678Z,5.13
2023-05-25T18:52:01.645Z,4.10
2023-05-25T18:54:28.423Z,3.50
2023-05-25T18:56:55.189Z,4.60
2023-05-25T18:59:21.903Z,4.57
2023-05-25T19:01:48.824Z,4.50
2023-05-25T19:04:15.949Z,4.03
2023-05-25T19:06:42.826Z,3.85
2023-05-25T19:09:09.698Z,4.63
2023-05-25T19:11:36.378Z,4.72
2023-05-25T19:14:03.097Z,4.13
2023-05-25T19:16:29.818Z,4.22
2023-05-25T19:18:59.064Z,4.80
2023-05-25T19:21:26.933Z,4.78
2023-05-25T19:23:54.360Z,4.35
2023-05-25T19:26:21.271Z,4.43
2023-05-25T19:28:48.152Z,5.25
2023-05-25T19:31:15.601Z,5.03
2023-05-25T19:33:42.757Z,4.50
2023-05-25T19:36:09.529Z,5.00
2023-05-25T19:38:41.278Z,4.82
2023-05-25T19:41:11.576Z,4.07
2023-05-25T19:43:38.774Z,5.43
2023-05-25T19:46:05.998Z,4.75
2023-05-25T19:48:32.756Z,4.40
2023-05-25T19:51:01.044Z,4.93
2023-05-25T19:53:31.607Z,4.85
2023-05-25T19:55:58.877Z,5.05
2023-05-25T19:58:28.149Z,4.63
2023-05-25T20:00:55.227Z,4.90
2023-05-25T20:03:22.180Z,5.13
2023-05-25T20:05:49.110Z,4.70
2023-05-25T20:08:16.040Z,4.85
2023-05-25T20:10:45.011Z,4.20
2023-05-25T20:13:12.840Z,4.85
2023-05-25T20:15:42.332Z,4.53
2023-05-25T20:18:09.200Z,5.00
2023-05-25T20:20:38.542Z,5.15
2023-05-25T20:23:06.206Z,5.65
2023-05-25T20:25:33.076Z,4.68
2023-05-25T20:27:59.708Z,4.10
2023-05-25T20:30:29.850Z,5.35
2023-05-25T20:32:56.692Z,4.80
2023-05-25T20:35:25.798Z,4.70
2023-05-25T20:37:52.833Z,5.18
2023-05-25T20:40:19.682Z,6.05
2023-05-25T20:42:46.944Z,5.30
2023-05-25T20:45:13.984Z,5.43
2023-05-25T20:47:41.141Z,5.35
2023-05-25T20:50:10.641Z,5.63
2023-05-25T20:52:37.578Z,4.85
2023-05-25T20:55:05.191Z,5.65
2023-05-25T20:57:32.129Z,5.03
2023-05-25T21:00:00.022Z,5.22
2023-05-25T21:02:28.957Z,5.18
2023-05-25T21:04:55.719Z,5.85
2023-05-25T21:07:22.639Z,5.43
2023-05-25T21:09:49.492Z,4.57
2023-05-25T21:12:16.223Z,4.82
2023-05-25T21:14:43.049Z,4.70
2023-05-25T21:17:10.143Z,5.40
2023-05-25T21:19:37.004Z,4.88
2023-05-25T21:22:03.964Z,6.35
2023-05-25T21:24:31.624Z,5.30
2023-05-25T21:27:01.660Z,4.88
2023-05-25T21:29:28.383Z,5.50
2023-05-25T21:31:55.494Z,5.32
2023-05-25T21:34:22.631Z,5.68
2023-05-25T21:36:49.881Z,5.82
2023-05-25T21:39:17.374Z,4.60
2023-05-25T21:41:47.118Z,5.30
2023-05-25T21:44:13.761Z,4.55
2023-05-25T21:46:40.631Z,5.13
2023-05-25T21:49:07.548Z,5.65
2023-05-25T21:51:34.200Z,4.68
2023-05-25T21:54:01.182Z,5.63
2023-05-25T21:56:30.107Z,4.75
2023-05-25T21:58:56.903Z,4.80
2023-05-25T22:01:24.195Z,3.92
2023-05-25T22:03:51.256Z,4.72
2023-05-25T22:06:18.312Z,4.72
2023-05-25T22:08:45.098Z,5.05
2023-05-25T22:11:11.908Z,4.80
2023-05-25T22:13:38.650Z,4.28
2023-05-25T22:16:06.206Z,4.95
2023-05-25T22:18:34.384Z,3.63
2023-05-25T22:21:02.191Z,4.65
2023-05-25T22:23:31.070Z,4.13
2023-05-25T22:25:59.949Z,3.90
2023-05-25T22:28:28.957Z,4.53
2023-05-25T22:30:58.200Z,3.75
2023-05-25T22:33:25.451Z,4.15
2023-05-25T22:35:52.214Z,4.38
2023-05-25T22:38:22.100Z,4.47
2023-05-25T22:40:48.873Z,4.47
2023-05-25T22:43:15.813Z,4.57
2023-05-25T22:45:42.778Z,3.90
2023-05-25T22:48:13.199Z,4.55
2023-05-25T22:50:40.052Z,5.40
2023-05-25T22:53:06.936Z,4.80
2023-05-25T22:55:33.694Z,4.13
2023-05-25T22:58:00.346Z,4.70
2023-05-25T23:00:29.460Z,4.30
2023-05-25T23:02:56.604Z,4.78
2023-05-25T23:05:23.405Z,3.97
2023-05-25T23:07:52.166Z,4.60
2023-05-25T23:10:18.971Z,4.47
2023-05-25T23:12:46.682Z,4.30
2023-05-25T23:15:13.327Z,4.72
2023-05-25T23:17:42.287Z,4.45
2023-05-25T23:20:10.589Z,4.47
2023-05-25T23:22:37.590Z,3.90
2023-05-25T23:25:07.087Z,4.75
2023-05-25T23:27:33.857Z,5.00
2023-05-25T23:30:03.566Z,4.70
2023-05-25T23:32:30.416Z,4.63
2023-05-25T23:34:57.542Z,4.80
2023-05-25T23:37:24.403Z,4.45
2023-05-25T23:39:51.524Z,4.43
2023-05-25T23:42:19.263Z,5.38
2023-05-25T23:44:46.314Z,4.15
2023-05-25T23:47:13.049Z,4.72
2023-05-25T23:49:42.564Z,4.55
2023-05-25T23:52:09.270Z,4.00
2023-05-25T23:54:37.347Z,5.07
2023-05-25T23:57:04.379Z,4.68
2023-05-25T23:59:31.230Z,4.65
